createdAt,value
2022-10-22T00:01:41.166Z,13.80
2022-10-22T00:05:43.418Z,13.60
2022-10-22T00:09:45.904Z,13.60
2022-10-22T00:13:48.886Z,13.50
2022-10-22T00:17:50.734Z,13.30
2022-10-22T00:21:52.710Z,13.30
2022-10-22T00:25:55.138Z,13.20
2022-10-22T00:29:56.968Z,13.30
2022-10-22T00:33:58.826Z,13.50
2022-10-22T00:38:00.689Z,13.80
2022-10-22T00:42:02.506Z,13.50
2022-10-22T00:46:04.414Z,13.40
2022-10-22T00:50:11.631Z,13.40
2022-10-22T00:54:13.677Z,13.50
2022-10-22T00:58:15.963Z,13.60
2022-10-22T01:02:18.023Z,13.60
2022-10-22T01:06:29.103Z,13.40
2022-10-22T01:10:49.242Z,13.30
2022-10-22T01:15:00.019Z,13.40
2022-10-22T01:19:29.485Z,13.60
2022-10-22T01:23:34.056Z,13.60
2022-10-22T01:28:01.362Z,13.60
2022-10-22T01:32:08.922Z,13.60
2022-10-22T01:36:12.999Z,13.60
2022-10-22T01:40:16.268Z,13.40
2022-10-22T01:44:27.140Z,13.00
2022-10-22T01:48:56.465Z,13.00
2022-10-22T01:53:01.264Z,12.90
2022-10-22T01:57:21.260Z,12.90
2022-10-22T02:01:40.220Z,12.80
2022-10-22T02:05:49.836Z,12.80
2022-10-22T02:09:54.099Z,13.00
2022-10-22T02:14:01.313Z,13.30
2022-10-22T02:18:04.724Z,13.10
2022-10-22T02:22:07.528Z,13.00
2022-10-22T02:26:32.608Z,12.90
2022-10-22T02:30:38.649Z,12.60
2022-10-22T02:34:40.948Z,12.50
2022-10-22T02:38:43.520Z,12.40
2022-10-22T02:42:48.443Z,12.40
2022-10-22T02:46:51.099Z,12.60
2022-10-22T02:50:52.982Z,12.70
2022-10-22T02:54:54.850Z,13.20
2022-10-22T02:58:56.785Z,13.50
2022-10-22T03:02:58.626Z,13.30
2022-10-22T03:07:00.527Z,13.20
2022-10-22T03:11:02.390Z,13.20
2022-10-22T03:15:04.925Z,13.30
2022-10-22T03:19:06.855Z,13.40
2022-10-22T03:23:09.213Z,13.60
2022-10-22T03:27:13.022Z,13.80
2022-10-22T03:31:15.517Z,13.90
2022-10-22T03:35:17.365Z,14.00
2022-10-22T03:39:20.298Z,14.20
2022-10-22T03:43:22.226Z,14.20
2022-10-22T03:47:24.612Z,14.10
2022-10-22T03:51:29.662Z,14.00
2022-10-22T03:55:31.498Z,14.20
2022-10-22T03:59:41.770Z,14.10
2022-10-22T04:03:43.621Z,14.30
2022-10-22T04:07:45.426Z,14.30
2022-10-22T04:11:47.271Z,14.30
2022-10-22T04:15:49.102Z,14.10
2022-10-22T04:19:50.970Z,14.00
2022-10-22T04:23:53.375Z,14.00
2022-10-22T04:27:55.227Z,14.20
2022-10-22T04:31:57.163Z,14.20
2022-10-22T04:35:59.013Z,14.00
2022-10-22T04:40:00.852Z,14.10
2022-10-22T04:44:03.996Z,14.30
2022-10-22T04:48:06.272Z,14.30
2022-10-22T04:52:08.192Z,14.50
2022-10-22T04:56:22.789Z,14.60
2022-10-22T05:00:24.644Z,14.60
2022-10-22T05:04:26.705Z,14.10
2022-10-22T05:08:28.554Z,14.30
2022-10-22T05:12:30.993Z,14.20
2022-10-22T05:16:33.685Z,14.30
2022-10-22T05:20:38.904Z,14.30
2022-10-22T05:24:40.764Z,14.40
2022-10-22T05:28:42.847Z,14.50
2022-10-22T05:32:45.021Z,14.50
2022-10-22T05:36:46.885Z,14.30
2022-10-22T05:40:59.068Z,14.60
2022-10-22T05:45:00.910Z,14.60
2022-10-22T05:49:04.855Z,14.40
2022-10-22T05:53:06.725Z,14.30
2022-10-22T05:57:08.565Z,14.30
2022-10-22T06:01:16.463Z,14.30
2022-10-22T06:05:18.394Z,14.20
2022-10-22T06:09:33.950Z,14.10
2022-10-22T06:13:35.958Z,13.90
2022-10-22T06:17:37.825Z,13.70
2022-10-22T06:21:39.900Z,13.70
2022-10-22T06:25:42.504Z,13.60
2022-10-22T06:29:44.533Z,13.60
2022-10-22T06:33:46.377Z,13.50
2022-10-22T06:37:48.289Z,13.60
2022-10-22T06:41:50.178Z,13.80
2022-10-22T06:45:52.074Z,14.10
2022-10-22T06:49:53.877Z,13.60
2022-10-22T06:53:57.292Z,13.90
2022-10-22T06:57:59.290Z,13.80
2022-10-22T07:02:01.112Z,13.70
2022-10-22T07:06:04.764Z,13.60
2022-10-22T07:10:07.232Z,13.60
2022-10-22T07:14:10.047Z,13.60
2022-10-22T07:18:11.953Z,13.70
2022-10-22T07:22:13.760Z,13.80
2022-10-22T07:26:17.543Z,13.80
2022-10-22T07:30:19.459Z,13.60
2022-10-22T07:34:21.369Z,13.50
2022-10-22T07:38:23.213Z,13.50
2022-10-22T07:42:25.099Z,13.60
2022-10-22T07:46:27.574Z,13.70
2022-10-22T07:50:29.515Z,13.50
2022-10-22T07:54:31.344Z,13.70
2022-10-22T07:58:33.569Z,13.90
2022-10-22T08:02:35.738Z,14.00
2022-10-22T08:06:38.681Z,14.00
2022-10-22T08:10:40.870Z,14.30
2022-10-22T08:14:42.825Z,14.30
2022-10-22T08:18:44.731Z,14.40
2022-10-22T08:22:46.662Z,14.30
2022-10-22T08:26:48.820Z,14.20
2022-10-22T08:30:50.731Z,14.20
2022-10-22T08:34:52.598Z,14.10
2022-10-22T08:38:54.424Z,14.30
2022-10-22T08:43:28.669Z,14.60
2022-10-22T08:47:47.367Z,14.80
2022-10-22T08:51:49.643Z,14.80
2022-10-22T08:55:54.119Z,14.90
2022-10-22T09:00:05.457Z,15.00
2022-10-22T09:04:14.635Z,15.10
2022-10-22T09:08:18.035Z,15.10
2022-10-22T09:12:24.703Z,15.20
2022-10-22T09:16:57.424Z,15.10
2022-10-22T09:21:48.292Z,15.00
2022-10-22T09:25:51.390Z,15.10
2022-10-22T09:29:53.474Z,15.40
2022-10-22T09:33:55.486Z,14.70
2022-10-22T09:37:57.621Z,15.00
2022-10-22T09:41:59.716Z,15.20
2022-10-22T09:46:05.063Z,15.00
2022-10-22T09:50:19.572Z,15.10
2022-10-22T09:54:31.966Z,15.30
2022-10-22T09:58:46.621Z,15.40
2022-10-22T10:02:48.475Z,15.40
2022-10-22T10:06:55.265Z,15.40
2022-10-22T10:11:02.900Z,15.70
2022-10-22T10:15:36.678Z,15.20
2022-10-22T10:19:45.442Z,15.10
2022-10-22T10:24:31.653Z,15.00
2022-10-22T10:28:48.822Z,15.20
2022-10-22T10:33:09.230Z,15.40
2022-10-22T10:37:35.364Z,15.40
2022-10-22T10:42:05.074Z,15.50
2022-10-22T10:46:12.802Z,15.20
2022-10-22T10:50:24.985Z,15.20
2022-10-22T10:54:50.725Z,15.10
2022-10-22T10:58:58.240Z,15.10
2022-10-22T11:03:08.941Z,15.30
2022-10-22T11:07:30.411Z,15.30
2022-10-22T11:11:48.393Z,15.20
2022-10-22T11:16:15.857Z,15.00
2022-10-22T11:20:22.380Z,15.00
2022-10-22T11:24:39.707Z,14.60
2022-10-22T11:28:50.890Z,14.60
2022-10-22T11:33:00.570Z,14.50
2022-10-22T11:37:04.869Z,14.30
2022-10-22T11:41:12.682Z,14.50
2022-10-22T11:45:14.483Z,14.70
2022-10-22T11:49:22.128Z,14.90
2022-10-22T11:53:36.146Z,15.00
2022-10-22T11:57:39.837Z,15.20
2022-10-22T12:01:47.957Z,15.50
2022-10-22T12:06:02.989Z,15.80
2022-10-22T12:10:20.324Z,15.90
2022-10-22T12:14:28.092Z,15.80
2022-10-22T12:18:42.440Z,15.60
2022-10-22T12:22:44.688Z,15.70
2022-10-22T12:26:47.131Z,15.80
2022-10-22T12:30:49.000Z,15.90
2022-10-22T12:34:52.573Z,15.80
2022-10-22T12:38:54.581Z,15.70
2022-10-22T12:43:02.385Z,15.80
2022-10-22T12:47:07.433Z,15.80
2022-10-22T12:51:14.109Z,15.90
2022-10-22T12:55:22.366Z,15.90
2022-10-22T12:59:37.092Z,15.80
2022-10-22T13:03:45.271Z,15.90
2022-10-22T13:07:53.300Z,16.00
2022-10-22T13:12:01.673Z,15.90
2022-10-22T13:16:17.396Z,16.10
2022-10-22T13:20:20.957Z,16.30
2022-10-22T13:24:24.512Z,16.70
2022-10-22T13:28:27.658Z,17.30
2022-10-22T13:32:33.668Z,17.60
2022-10-22T13:36:36.600Z,17.50
2022-10-22T13:40:39.180Z,17.50
2022-10-22T13:44:41.005Z,17.40
2022-10-22T13:48:44.290Z,17.40
2022-10-22T13:52:57.659Z,17.50
2022-10-22T13:56:59.467Z,17.40
2022-10-22T14:01:03.323Z,17.50
2022-10-22T14:05:08.657Z,17.30
2022-10-22T14:09:15.917Z,17.40
2022-10-22T14:13:19.430Z,17.40
2022-10-22T14:17:21.295Z,17.20
2022-10-22T14:21:23.723Z,17.10
2022-10-22T14:25:26.234Z,16.70
2022-10-22T14:29:28.139Z,16.60
2022-10-22T14:33:32.519Z,16.70
2022-10-22T14:37:34.447Z,16.60
2022-10-22T14:41:37.412Z,16.50
2022-10-22T14:45:39.232Z,16.70
2022-10-22T14:49:41.121Z,16.50
2022-10-22T14:53:43.523Z,16.40
2022-10-22T14:57:45.898Z,16.20
2022-10-22T15:01:47.782Z,16.10
2022-10-22T15:05:53.784Z,15.90
2022-10-22T15:09:55.648Z,16.10
2022-10-22T15:13:57.990Z,16.30
2022-10-22T15:17:59.888Z,15.60
2022-10-22T15:22:01.793Z,15.50
2022-10-22T15:26:03.653Z,15.00
2022-10-22T15:30:07.961Z,14.90
2022-10-22T15:34:09.854Z,14.60
2022-10-22T15:38:11.712Z,14.50
2022-10-22T15:42:14.643Z,14.40
2022-10-22T15:46:18.965Z,14.40
2022-10-22T15:50:20.934Z,14.40
2022-10-22T15:54:26.303Z,14.30
2022-10-22T15:58:28.173Z,14.00
2022-10-22T16:02:29.970Z,13.80
2022-10-22T16:06:37.313Z,13.80
2022-10-22T16:10:45.930Z,13.60
2022-10-22T16:14:51.100Z,13.60
2022-10-22T16:18:53.329Z,13.50
2022-10-22T16:22:55.162Z,13.30
2022-10-22T16:26:57.293Z,13.10
2022-10-22T16:31:05.935Z,13.10
2022-10-22T16:35:08.740Z,13.00
2022-10-22T16:39:10.613Z,12.90
2022-10-22T16:43:12.467Z,12.70
2022-10-22T16:47:14.299Z,12.70
2022-10-22T16:51:18.047Z,12.60
2022-10-22T16:55:19.921Z,12.40
2022-10-22T16:59:21.757Z,12.20
2022-10-22T17:03:26.038Z,12.10
2022-10-22T17:07:30.340Z,12.20
2022-10-22T17:11:36.351Z,12.30
2022-10-22T17:15:40.643Z,12.10
2022-10-22T17:19:42.513Z,11.90
2022-10-22T17:23:44.907Z,11.90
2022-10-22T17:27:46.783Z,11.90
2022-10-22T17:31:50.274Z,11.80
2022-10-22T17:35:52.721Z,11.80
2022-10-22T17:39:54.572Z,11.30
2022-10-22T17:43:57.821Z,11.60
2022-10-22T17:48:01.520Z,11.40
2022-10-22T17:52:03.487Z,11.10
2022-10-22T17:56:10.229Z,11.00
2022-10-22T18:00:13.981Z,10.70
2022-10-22T18:04:18.507Z,10.60
2022-10-22T18:08:20.630Z,10.90
2022-10-22T18:12:22.474Z,11.00
2022-10-22T18:16:25.596Z,10.70
2022-10-22T18:20:27.451Z,10.80
2022-10-22T18:24:29.349Z,10.90
2022-10-22T18:28:31.187Z,11.00
2022-10-22T18:32:34.144Z,11.00
2022-10-22T18:36:36.838Z,11.10
2022-10-22T18:40:46.538Z,11.10
2022-10-22T18:44:50.124Z,11.10
2022-10-22T18:48:56.408Z,11.10
2022-10-22T18:52:58.239Z,10.90
2022-10-22T18:57:02.884Z,10.60
2022-10-22T19:01:14.103Z,10.70
2022-10-22T19:05:16.057Z,10.70
2022-10-22T19:09:18.083Z,10.70
2022-10-22T19:13:21.224Z,10.60
2022-10-22T19:17:23.090Z,10.50
2022-10-22T19:21:24.956Z,10.10
2022-10-22T19:25:26.857Z,10.30
2022-10-22T19:29:28.696Z,10.30
2022-10-22T19:33:30.539Z,10.00
2022-10-22T19:37:33.078Z,10.20
2022-10-22T19:41:35.291Z,10.30
2022-10-22T19:45:40.967Z,10.30
2022-10-22T19:49:42.789Z,10.30
2022-10-22T19:53:44.661Z,10.40
2022-10-22T19:57:46.501Z,10.10
2022-10-22T20:01:48.874Z,10.20
2022-10-22T20:05:51.432Z,10.20
2022-10-22T20:09:53.288Z,10.00
2022-10-22T20:13:56.799Z,10.30
2022-10-22T20:17:59.170Z,10.30
2022-10-22T20:22:01.005Z,10.20
2022-10-22T20:26:04.340Z,10.20
2022-10-22T20:30:07.403Z,9.90
2022-10-22T20:34:09.615Z,9.90
2022-10-22T20:38:14.806Z,10.20
2022-10-22T20:42:17.124Z,10.00
2022-10-22T20:46:25.044Z,9.90
2022-10-22T20:50:31.355Z,9.70
2022-10-22T20:54:33.283Z,9.40
2022-10-22T20:58:35.813Z,9.90
2022-10-22T21:02:37.672Z,10.40
2022-10-22T21:06:41.423Z,10.50
2022-10-22T21:10:48.989Z,10.70
2022-10-22T21:14:50.939Z,10.80
2022-10-22T21:18:52.785Z,10.40
2022-10-22T21:22:54.651Z,10.40
2022-10-22T21:26:56.546Z,10.60
2022-10-22T21:30:58.503Z,10.60
2022-10-22T21:35:00.344Z,10.60
2022-10-22T21:39:02.771Z,10.80
2022-10-22T21:43:04.611Z,10.50
2022-10-22T21:47:06.565Z,10.50
2022-10-22T21:51:11.235Z,10.40
2022-10-22T21:55:13.056Z,10.00
2022-10-22T21:59:14.925Z,10.20
2022-10-22T22:03:16.697Z,10.70
2022-10-22T22:07:18.611Z,10.50
2022-10-22T22:11:23.363Z,10.40
2022-10-22T22:15:25.229Z,10.60
2022-10-22T22:19:27.093Z,10.70
2022-10-22T22:23:28.990Z,10.80
2022-10-22T22:27:30.825Z,10.50
2022-10-22T22:31:34.385Z,10.80
2022-10-22T22:35:37.089Z,9.90
2022-10-22T22:39:38.993Z,11.00
2022-10-22T22:43:40.797Z,10.80
2022-10-22T22:47:42.905Z,10.90
2022-10-22T22:51:44.979Z,10.80
2022-10-22T22:55:46.847Z,10.70
2022-10-22T22:59:51.914Z,10.70
2022-10-22T23:04:06.280Z,10.60
2022-10-22T23:08:08.123Z,10.70
2022-10-22T23:12:09.947Z,10.70
2022-10-22T23:16:18.386Z,10.70
2022-10-22T23:20:20.196Z,10.70
2022-10-22T23:24:25.794Z,10.70
2022-10-22T23:28:27.644Z,10.70
2022-10-22T23:32:29.540Z,11.60
2022-10-22T23:36:31.376Z,10.80
2022-10-22T23:40:33.274Z,10.60
2022-10-22T23:44:35.121Z,10.60
2022-10-22T23:48:39.536Z,10.50
2022-10-22T23:52:41.609Z,10.50
2022-10-22T23:56:43.701Z,10.50
